createdAt,value
2024-04-30T00:02:06.265Z,986.9
2024-04-30T00:04:07.461Z,987
2024-04-30T00:08:09.977Z,986.9
2024-04-30T00:10:11.455Z,986.9
2024-04-30T00:14:15.055Z,986.9
2024-04-30T00:18:17.466Z,986.9
2024-04-30T00:20:19.347Z,986.9
2024-04-30T00:24:21.849Z,986.9
2024-04-30T00:28:25.018Z,986.8
2024-04-30T00:30:26.784Z,986.9
2024-04-30T00:34:29.089Z,986.9
2024-04-30T00:36:30.057Z,986.8
2024-04-30T00:40:32.454Z,986.9
2024-04-30T00:44:35.607Z,986.8
2024-04-30T00:46:37.386Z,986.7
2024-04-30T00:50:40.151Z,986.8
2024-04-30T00:52:41.715Z,986.7
2024-04-30T00:56:45.368Z,986.7
2024-04-30T01:00:48.136Z,986.6
2024-04-30T01:02:49.180Z,986.7
2024-04-30T01:06:52.059Z,986.6
2024-04-30T01:10:55.606Z,986.6
2024-04-30T01:12:56.862Z,986.6
2024-04-30T01:16:59.707Z,986.6
2024-04-30T01:19:00.834Z,986.6
2024-04-30T01:23:03.921Z,986.5
2024-04-30T01:27:06.943Z,986.5
2024-04-30T01:29:08.380Z,986.5
2024-04-30T01:33:11.938Z,986.4
2024-04-30T01:35:13.084Z,986.5
2024-04-30T01:39:15.961Z,986.5
2024-04-30T01:43:19.332Z,986.4
2024-04-30T01:45:20.524Z,986.4
2024-04-30T01:49:23.525Z,986.4
2024-04-30T01:53:25.966Z,986.2
2024-04-30T01:55:27.066Z,986.3
2024-04-30T01:57:28.065Z,986.3
2024-04-30T01:59:29.634Z,986.3
2024-04-30T02:01:31.241Z,986.3
2024-04-30T02:05:34.301Z,986.3
2024-04-30T02:09:37.621Z,986.3
2024-04-30T02:11:38.636Z,986.4
2024-04-30T02:13:39.736Z,986.3
2024-04-30T02:15:40.741Z,986.3
2024-04-30T02:17:42.758Z,986.4
2024-04-30T02:21:45.341Z,986.5
2024-04-30T02:25:48.044Z,986.5
2024-04-30T02:27:49.904Z,986.4
2024-04-30T02:31:52.500Z,986.3
2024-04-30T02:33:53.902Z,986.3
2024-04-30T02:37:56.716Z,986.3
2024-04-30T02:41:58.864Z,986.4
2024-04-30T02:44:00.499Z,986.3
2024-04-30T02:48:03.554Z,986.4
2024-04-30T02:52:06.141Z,986.2
2024-04-30T02:54:07.862Z,986.2
2024-04-30T02:58:10.412Z,986.2
2024-04-30T03:00:11.532Z,986.1
2024-04-30T03:04:15.248Z,986
2024-04-30T03:08:18.587Z,986.1
2024-04-30T03:10:20.469Z,986
2024-04-30T03:14:23.679Z,985.9
2024-04-30T03:16:25.531Z,986
2024-04-30T03:20:28.841Z,986
2024-04-30T03:24:31.953Z,985.9
2024-04-30T03:26:32.965Z,986
2024-04-30T03:30:35.773Z,985.8
2024-04-30T03:34:39.406Z,985.9
2024-04-30T03:36:40.586Z,985.9
2024-04-30T03:40:43.649Z,985.9
2024-04-30T03:42:45.381Z,985.8
2024-04-30T03:46:47.790Z,985.9
2024-04-30T03:50:51.057Z,985.8
2024-04-30T03:52:52.281Z,985.8
2024-04-30T03:56:54.842Z,985.8
2024-04-30T04:02:59.272Z,985.7
2024-04-30T04:07:01.365Z,985.7
2024-04-30T04:09:02.724Z,985.7
2024-04-30T04:13:05.086Z,985.7
2024-04-30T04:17:08.055Z,985.8
2024-04-30T04:19:09.815Z,985.8
2024-04-30T04:23:12.718Z,985.7
2024-04-30T04:25:13.876Z,985.8
2024-04-30T04:29:16.795Z,985.8
2024-04-30T04:33:19.594Z,985.7
2024-04-30T04:35:20.595Z,985.7
2024-04-30T04:39:22.861Z,985.6
2024-04-30T04:41:24.415Z,985.6
2024-04-30T04:45:27.606Z,985.6
2024-04-30T04:49:30.131Z,985.6
2024-04-30T04:51:31.085Z,985.7
2024-04-30T04:55:34.017Z,985.7
2024-04-30T05:01:38.210Z,985.7
2024-04-30T05:05:40.263Z,985.8
2024-04-30T05:07:41.865Z,985.8
2024-04-30T05:10:27.240Z,985.6
2024-04-30T05:12:28.518Z,985.7
2024-04-30T05:16:31.040Z,985.7
2024-04-30T05:18:32.214Z,985.6
2024-04-30T05:22:34.660Z,985.7
2024-04-30T05:26:37.761Z,985.7
2024-04-30T05:28:39.514Z,985.8
2024-04-30T05:32:42.224Z,985.7
2024-04-30T05:34:43.457Z,985.7
2024-04-30T05:38:46.221Z,985.7
2024-04-30T05:42:48.630Z,985.6
2024-04-30T05:44:49.860Z,985.6
2024-04-30T05:48:52.787Z,985.6
2024-04-30T05:52:56.148Z,985.4
2024-04-30T05:54:57.050Z,985.5
2024-04-30T05:58:59.480Z,985.5
2024-04-30T06:01:00.914Z,985.4
2024-04-30T06:05:03.367Z,985.5
2024-04-30T06:09:05.969Z,985.4
2024-04-30T06:11:07.343Z,985.3
2024-04-30T06:15:10.562Z,985.2
2024-04-30T06:17:12.055Z,985.2
2024-04-30T06:21:16.647Z,985.3
2024-04-30T06:25:17.533Z,985.2
2024-04-30T06:27:19.043Z,985.4
2024-04-30T06:31:21.338Z,985.2
2024-04-30T06:37:24.507Z,985.3
2024-04-30T06:41:27.373Z,985.2
2024-04-30T06:43:28.666Z,985.1
2024-04-30T06:45:30.231Z,985.1
2024-04-30T06:47:31.223Z,985.1
2024-04-30T06:51:34.011Z,985
2024-04-30T06:53:35.360Z,985
2024-04-30T06:59:39.279Z,985
2024-04-30T07:03:41.506Z,985
2024-04-30T07:05:43.241Z,985
2024-04-30T07:09:54.331Z,984.8
2024-04-30T07:13:47.484Z,984.8
2024-04-30T07:15:48.681Z,984.9
2024-04-30T07:19:51.701Z,984.8
2024-04-30T07:23:53.680Z,984.8
2024-04-30T07:25:54.975Z,984.7
2024-04-30T07:29:57.488Z,984.9
2024-04-30T07:31:58.389Z,984.9
2024-04-30T07:33:59.228Z,984.9
2024-04-30T07:36:00.770Z,984.8
2024-04-30T07:40:03.239Z,984.9
2024-04-30T07:42:05.989Z,985
2024-04-30T07:46:06.537Z,985
2024-04-30T07:48:07.974Z,985
2024-04-30T07:52:10.691Z,985.1
2024-04-30T07:56:13.107Z,985
2024-04-30T07:58:14.672Z,985
2024-04-30T08:02:17.410Z,985
2024-04-30T08:04:18.205Z,984.9
2024-04-30T08:08:22.621Z,984.9
2024-04-30T08:12:23.850Z,984.9
2024-04-30T08:14:25.579Z,984.9
2024-04-30T08:18:28.107Z,984.8
2024-04-30T08:22:31.546Z,984.8
2024-04-30T08:24:32.604Z,984.8
2024-04-30T08:28:35.071Z,984.7
2024-04-30T08:30:36.481Z,984.8
2024-04-30T08:34:38.733Z,984.7
2024-04-30T08:38:41.794Z,984.7
2024-04-30T08:40:42.668Z,984.6
2024-04-30T08:44:44.941Z,984.7
2024-04-30T08:46:45.857Z,984.9
2024-04-30T08:50:48.988Z,984.8
2024-04-30T08:54:51.743Z,984.8
2024-04-30T08:56:52.699Z,984.8
2024-04-30T09:00:55.887Z,984.7
2024-04-30T09:04:58.107Z,984.7
2024-04-30T09:06:59.738Z,984.6
2024-04-30T09:11:02.667Z,984.7
2024-04-30T09:13:03.481Z,984.7
2024-04-30T09:15:04.940Z,984.7
2024-04-30T09:17:05.984Z,984.7
2024-04-30T09:21:16.045Z,984.7
2024-04-30T09:23:10.108Z,984.6
2024-04-30T09:25:11.840Z,984.6
2024-04-30T09:27:13.130Z,984.6
2024-04-30T09:29:14.267Z,984.6
2024-04-30T09:33:16.627Z,984.6
2024-04-30T09:37:18.939Z,984.6
2024-04-30T09:39:20.574Z,984.6
2024-04-30T09:43:22.310Z,984.5
2024-04-30T09:45:23.752Z,984.5
2024-04-30T09:49:26.106Z,984.4
2024-04-30T09:53:29.383Z,984.4
2024-04-30T09:55:30.671Z,984.2
2024-04-30T09:59:32.886Z,984.1
2024-04-30T10:03:35.067Z,984
2024-04-30T10:05:36.855Z,984
2024-04-30T10:09:39.600Z,984.1
2024-04-30T10:11:40.482Z,984.1
2024-04-30T10:15:42.737Z,984
2024-04-30T10:19:45.590Z,984
2024-04-30T10:21:46.845Z,984
2024-04-30T10:25:49.007Z,984
2024-04-30T10:27:49.997Z,984
2024-04-30T10:31:53.193Z,983.9
2024-04-30T10:35:54.636Z,983.8
2024-04-30T10:37:57.006Z,983.8
2024-04-30T10:41:58.192Z,983.7
2024-04-30T10:46:00.984Z,983.7
2024-04-30T10:48:02.263Z,983.7
2024-04-30T10:52:05.509Z,983.7
2024-04-30T10:54:06.936Z,983.7
2024-04-30T10:56:08.065Z,983.7
2024-04-30T10:58:09.042Z,983.7
2024-04-30T11:02:11.115Z,983.5
2024-04-30T11:04:12.328Z,983.5
2024-04-30T11:06:13.846Z,983.5
2024-04-30T11:08:15.097Z,983.5
2024-04-30T11:10:16.278Z,983.5
2024-04-30T11:14:18.378Z,983.4
2024-04-30T11:18:20.159Z,983.4
2024-04-30T11:20:21.755Z,983.4
2024-04-30T11:24:23.998Z,983.3
2024-04-30T11:26:25.043Z,983.3
2024-04-30T11:30:27.584Z,983.3
2024-04-30T11:34:30.468Z,983.3
2024-04-30T11:36:31.312Z,983.3
2024-04-30T11:40:33.820Z,983.2
2024-04-30T11:44:36.424Z,983.2
2024-04-30T11:46:37.320Z,983.1
2024-04-30T11:50:39.752Z,983
2024-04-30T11:52:41.201Z,983
2024-04-30T11:55:26.204Z,983
2024-04-30T11:57:27.437Z,983
2024-04-30T12:01:30.149Z,982.8
2024-04-30T12:03:31.628Z,982.9
2024-04-30T12:07:34.610Z,982.8
2024-04-30T12:11:36.858Z,982.7
2024-04-30T12:13:38.481Z,982.7
2024-04-30T12:17:40.786Z,982.6
2024-04-30T12:23:46.659Z,982.6
2024-04-30T12:27:47.045Z,982.5
2024-04-30T12:29:48.207Z,982.5
2024-04-30T12:33:51.403Z,982.4
2024-04-30T12:37:53.275Z,982.4
2024-04-30T12:39:54.708Z,982.4
2024-04-30T12:43:56.777Z,982.4
2024-04-30T12:45:58.961Z,982.4
2024-04-30T12:50:01.122Z,982.4
2024-04-30T12:54:03.944Z,982.3
2024-04-30T12:56:04.746Z,982.3
2024-04-30T13:00:07.606Z,982.3
2024-04-30T13:02:09.048Z,982.3
2024-04-30T13:06:11.097Z,982.1
2024-04-30T13:10:13.078Z,982.1
2024-04-30T13:12:14.686Z,982.1
2024-04-30T13:16:17.841Z,982.1
2024-04-30T13:20:20.578Z,982
2024-04-30T13:22:22.320Z,982.1
2024-04-30T13:26:24.680Z,982
2024-04-30T13:28:26.142Z,982
2024-04-30T13:30:27.236Z,981.9
2024-04-30T13:32:27.993Z,982
2024-04-30T13:36:30.256Z,981.9
2024-04-30T13:38:31.471Z,981.9
2024-04-30T13:40:32.429Z,981.9
2024-04-30T13:42:33.316Z,981.8
2024-04-30T13:44:34.579Z,981.8
2024-04-30T13:48:37.012Z,981.7
2024-04-30T13:50:38.035Z,981.7
2024-04-30T13:52:39.016Z,981.7
2024-04-30T13:54:39.952Z,981.6
2024-04-30T13:58:42.927Z,981.7
2024-04-30T14:00:43.852Z,981.7
2024-04-30T14:04:46.137Z,981.6
2024-04-30T14:08:48.979Z,981.6
2024-04-30T14:10:49.985Z,981.5
2024-04-30T14:14:51.969Z,981.4
2024-04-30T14:18:54.280Z,981.4
2024-04-30T14:20:55.925Z,981.4
2024-04-30T14:24:57.777Z,981.4
2024-04-30T14:26:59.238Z,981.3
2024-04-30T14:31:01.154Z,981.3
2024-04-30T14:35:03.615Z,981.2
2024-04-30T14:37:04.715Z,981.2
2024-04-30T14:41:06.800Z,981.3
2024-04-30T14:43:08.065Z,981.2
2024-04-30T14:47:11.437Z,981.2
2024-04-30T14:51:13.380Z,981.1
2024-04-30T14:53:14.346Z,981.1
2024-04-30T14:57:16.067Z,981.2
2024-04-30T15:03:19.404Z,981.1
2024-04-30T15:07:22.243Z,981.1
2024-04-30T15:09:23.523Z,981.1
2024-04-30T15:13:26.004Z,981.1
2024-04-30T15:17:28.486Z,981
2024-04-30T15:19:29.953Z,980.9
2024-04-30T15:23:32.119Z,980.8
2024-04-30T15:25:33.298Z,980.9
2024-04-30T15:29:35.288Z,980.9
2024-04-30T15:33:38.505Z,980.9
2024-04-30T15:35:39.894Z,980.9
2024-04-30T15:39:41.526Z,980.9
2024-04-30T15:41:43.215Z,980.8
2024-04-30T15:45:46.471Z,980.7
2024-04-30T15:49:49.321Z,980.8
2024-04-30T15:51:51.047Z,980.8
2024-04-30T15:56:09.380Z,980.7
2024-04-30T15:59:55.137Z,980.7
2024-04-30T16:01:56.834Z,980.6
2024-04-30T16:05:59.418Z,980.6
2024-04-30T16:08:00.918Z,980.6
2024-04-30T16:12:04.541Z,980.5
2024-04-30T16:16:09.110Z,980.5
2024-04-30T16:18:08.723Z,980.5
2024-04-30T16:22:11.235Z,980.5
2024-04-30T16:24:12.521Z,980.6
2024-04-30T16:28:14.937Z,980.5
2024-04-30T16:32:17.351Z,980.5
2024-04-30T16:34:18.243Z,980.5
2024-04-30T16:38:21.285Z,980.5
2024-04-30T16:42:24.485Z,980.3
2024-04-30T16:44:33.321Z,980.4
2024-04-30T16:48:28.464Z,980.4
2024-04-30T16:50:29.281Z,980.4
2024-04-30T16:52:30.626Z,980.5
2024-04-30T16:54:31.712Z,980.4
2024-04-30T16:58:34.748Z,980.4
2024-04-30T17:00:35.750Z,980.5
2024-04-30T17:02:36.634Z,980.4
2024-04-30T17:04:37.831Z,980.4
2024-04-30T17:06:39.435Z,980.3
2024-04-30T17:10:41.756Z,980.3
2024-04-30T17:14:43.963Z,980.2
2024-04-30T17:16:44.837Z,980.2
2024-04-30T17:20:47.403Z,980.3
2024-04-30T17:22:48.858Z,980.3
2024-04-30T17:26:51.652Z,980.3
2024-04-30T17:30:54.264Z,980.2
2024-04-30T17:32:55.260Z,980.1
2024-04-30T17:36:58.771Z,980.1
2024-04-30T17:41:01.009Z,980.1
2024-04-30T17:43:02.317Z,980.1
2024-04-30T17:47:05.147Z,980.2
2024-04-30T17:49:06.584Z,980.2
2024-04-30T17:53:08.903Z,980.2
2024-04-30T17:57:11.553Z,980.3
2024-04-30T17:59:12.932Z,980.1
2024-04-30T18:03:15.247Z,980.2
2024-04-30T18:05:17.009Z,980.2
2024-04-30T18:09:20.157Z,980.3
2024-04-30T18:13:22.750Z,980.2
2024-04-30T18:15:24.082Z,980.2
2024-04-30T18:19:26.079Z,980.2
2024-04-30T18:23:28.251Z,980.2
2024-04-30T18:25:29.297Z,980.3
2024-04-30T18:29:32.587Z,980.3
2024-04-30T18:31:33.605Z,980.3
2024-04-30T18:33:35.082Z,980.3
2024-04-30T18:35:36.743Z,980.2
2024-04-30T18:38:22.297Z,980.2
2024-04-30T18:40:23.190Z,980.2
2024-04-30T18:42:25.070Z,980.2
2024-04-30T18:46:27.038Z,980.3
2024-04-30T18:48:28.073Z,980.2
2024-04-30T18:50:29.823Z,980.3
2024-04-30T18:52:31.589Z,980.3
2024-04-30T18:56:33.760Z,980.3
2024-04-30T18:58:35.275Z,980.3
2024-04-30T19:02:38.126Z,980.3
2024-04-30T19:06:41.275Z,980.3
2024-04-30T19:08:42.717Z,980.3
2024-04-30T19:12:45.231Z,980.4
2024-04-30T19:16:47.407Z,980.3
2024-04-30T19:18:48.563Z,980.4
2024-04-30T19:22:50.945Z,980.3
2024-04-30T19:24:52.523Z,980.4
2024-04-30T19:28:55.393Z,980.3
2024-04-30T19:32:57.577Z,980.2
2024-04-30T19:34:59.276Z,980.2
2024-04-30T19:39:01.263Z,980.3
2024-04-30T19:41:02.844Z,980.2
2024-04-30T19:45:05.623Z,980.2
2024-04-30T19:49:08.574Z,980.2
2024-04-30T19:51:10.044Z,980.2
2024-04-30T19:55:12.311Z,980.2
2024-04-30T19:59:14.896Z,980.2
2024-04-30T20:01:16.835Z,980.2
2024-04-30T20:05:19.336Z,980.1
2024-04-30T20:07:20.267Z,980.2
2024-04-30T20:11:23.163Z,980.2
2024-04-30T20:15:26.070Z,980.1
2024-04-30T20:17:27.604Z,980.1
2024-04-30T20:21:30.796Z,980
2024-04-30T20:23:32.059Z,980.1
2024-04-30T20:27:34.401Z,979.9
2024-04-30T20:31:36.771Z,979.9
2024-04-30T20:33:38.185Z,980
2024-04-30T20:37:41.324Z,979.9
2024-04-30T20:41:44.487Z,979.9
2024-04-30T20:43:45.984Z,979.9
2024-04-30T20:47:49.009Z,979.9
2024-04-30T20:49:50.212Z,980
2024-04-30T20:51:51.434Z,979.9
2024-04-30T20:53:52.517Z,979.9
2024-04-30T20:57:55.874Z,979.8
2024-04-30T20:59:56.807Z,979.9
2024-04-30T21:01:58.567Z,979.9
2024-04-30T21:03:59.541Z,979.9
2024-04-30T21:06:00.713Z,979.7
2024-04-30T21:10:03.340Z,979.8
2024-04-30T21:12:05.165Z,979.8
2024-04-30T21:14:06.425Z,979.8
2024-04-30T21:16:08.220Z,979.8
2024-04-30T21:20:10.868Z,979.7
2024-04-30T21:22:12.371Z,979.6
2024-04-30T21:26:15.598Z,979.6
2024-04-30T21:30:17.982Z,979.6
2024-04-30T21:32:18.960Z,979.5
2024-04-30T21:36:30.191Z,979.5
2024-04-30T21:40:24.245Z,979.5
2024-04-30T21:42:25.748Z,979.4
2024-04-30T21:46:27.911Z,979.4
2024-04-30T21:48:29.264Z,979.3
2024-04-30T21:52:32.729Z,979.2
2024-04-30T21:56:36.022Z,979.3
2024-04-30T21:58:37.846Z,979.3
2024-04-30T22:02:40.517Z,979.1
2024-04-30T22:04:42.281Z,979.2
2024-04-30T22:08:45.433Z,979.1
2024-04-30T22:12:47.959Z,979.2
2024-04-30T22:14:49.289Z,979.1
2024-04-30T22:18:51.310Z,979.1
2024-04-30T22:22:53.986Z,979
2024-04-30T22:24:55.857Z,979.1
2024-04-30T22:28:58.580Z,979
2024-04-30T22:31:00.157Z,979.1
2024-04-30T22:35:02.924Z,979
2024-04-30T22:39:05.537Z,979
2024-04-30T22:41:06.510Z,979
2024-04-30T22:45:09.042Z,979
2024-04-30T22:47:10.289Z,979
2024-04-30T22:51:13.708Z,979
2024-04-30T22:55:17.192Z,978.9
2024-04-30T22:57:18.634Z,978.9
2024-04-30T23:01:21.615Z,978.9
2024-04-30T23:05:24.574Z,978.8
2024-04-30T23:07:25.671Z,978.9
2024-04-30T23:11:28.164Z,979
2024-04-30T23:13:29.809Z,978.9
2024-04-30T23:15:31.323Z,978.8
2024-04-30T23:17:32.456Z,978.8
2024-04-30T23:21:35.087Z,978.8
2024-04-30T23:23:36.075Z,978.8
2024-04-30T23:25:37.239Z,978.8
2024-04-30T23:27:38.393Z,978.9
2024-04-30T23:29:39.756Z,978.8
2024-04-30T23:33:42.835Z,978.9
2024-04-30T23:35:44.547Z,978.8
2024-04-30T23:37:45.835Z,978.7
2024-04-30T23:39:46.841Z,978.7
2024-04-30T23:43:49.340Z,978.7
2024-04-30T23:45:50.740Z,978.7
2024-04-30T23:49:53.608Z,978.7
2024-04-30T23:53:56.788Z,978.7
2024-04-30T23:55:57.984Z,978.6
